Impacts METAR Board
IDs:

KSFO - San Francisco Intl, CA, US

Updated at: 0900 UTC 19 Jul 2018
Potential Impact None Slight Moderate High
Time 18/21Z 18/22Z 18/23Z 19/00Z 19/01Z 19/02Z 19/03Z 19/04Z 19/05Z 19/06Z 19/07Z 19/08Z 19/09Z
Temp71 70 69 67 64 61 59 59 59 58 58 56 55
Dewpt56 56 56 55 55 54 54 54 55 55 54 54 54
Altim29.97 29.95 29.93 29.92 29.91 29.91 29.91 29.92 29.94 29.95 29.94 29.93 29.93
VIS10 10 10 10 10 10 10 10 10 10 10 10 10
CIG200 200 200 200 -- -- -- -- -- -- -- -- --
CoverBKNBKNBKNBKNSCTSCTSCTSCTFEWFEWFEWFEWFEW
FltCatVFRVFRVFRVFRVFRVFRVFRVFRVFRVFRVFRVFRVFR
WX--------------------------
WDir300310300300300300300300300300290300290
WSpd16 18 18 19 19 18 17 11 9 10 8 8 8
WGst-- -- -- -- -- -- -- -- -- -- -- -- --
Raw hourly METARs
KSFO 182056Z 30016KT 10SM FEW010 BKN200 22/13 A2997 RMK AO2 SLP147 T02170133 58009
KSFO 182156Z 31018KT 10SM R28R/4000VP6000FT FEW008 BKN200 21/13 A2995 RMK AO2 SLP141 T02110133
KSFO 182256Z 30018KT 10SM FEW007 BKN200 21/13 A2993 RMK AO2 SLP135 T02060133
KSFO 182356Z 30019KT 10SM FEW006 BKN200 19/13 A2992 RMK AO2 SLP133 T01940128 10217 20183 56015
KSFO 190056Z 30019KT 10SM FEW006 SCT200 18/13 A2991 RMK AO2 PK WND 29026/0034 SLP128 T01780128
KSFO 190156Z 30018KT 10SM FEW005 SCT200 16/12 A2991 RMK AO2 SLP129 T01610122
KSFO 190256Z 30017KT 10SM FEW005 SCT200 15/12 A2991 RMK AO2 SLP128 T01500122 56004
KSFO 190356Z 30011KT 10SM FEW004 SCT180 15/12 A2992 RMK AO2 SLP132 T01500122
KSFO 190456Z 30009KT 10SM FEW004 15/13 A2994 RMK AO2 SLP138 T01500128
KSFO 190556Z 30010KT 10SM FEW005 14/13 A2995 RMK AO2 SLP140 T01440128 10194 20144 51012
KSFO 190656Z 29008KT 10SM FEW005 14/12 A2994 RMK AO2 SLP137 T01440122
KSFO 190756Z 30008KT 10SM FEW004 13/12 A2993 RMK AO2 SLP136 T01330122 402170128
KSFO 190856Z 29008KT 10SM FEW004 13/12 A2993 RMK AO2 SLP133 T01280122 56006 $



Page loaded:  09:42 UTC  |   02:42 AM Pacific  |   03:42 AM Mountain  |   04:42 AM Central  |   05:42 AM Eastern

 

ADVISORIES

FORECASTS

FORECASTS

OBSERVATIONS

USER TOOLS

ABOUT US